Time;durP1;ratioP1;P1;durP2;ratioP2;P2;SDS_P1;SDS_P2;PMS_P1;PMS_P2;Temp;Humidity;BMP_temperature;BMP_pressure;BME280_temperature;BME280_humidity;BME280_pressure;Samples;Min_cycle;Max_cycle;Signal;HPM_P1;HPM_P2
2020/12/07 00:00:58;;;;;;;13.38;5.35;;;6.20;94.20;;;;;;5024368;28;20421;-50
2020/12/07 00:03:24;;;;;;;9.35;5.55;;;6.10;94.20;;;;;;5020898;28;20041;-50
2020/12/07 00:06:10;;;;;;;11.70;5.75;;;6.10;94.20;;;;;;5009701;28;20046;-52
2020/12/07 00:08:36;;;;;;;10.25;5.68;;;6.20;94.20;;;;;;5024014;28;20378;-50
2020/12/07 00:11:02;;;;;;;10.77;5.63;;;6.10;94.20;;;;;;5025499;28;20072;-52
2020/12/07 00:13:48;;;;;;;9.35;5.53;;;6.10;94.20;;;;;;5009604;28;20091;-51
2020/12/07 00:16:13;;;;;;;9.85;5.68;;;6.10;94.20;;;;;;5023002;28;20038;-52
2020/12/07 00:18:39;;;;;;;8.77;5.43;;;6.10;94.20;;;;;;4998230;28;20045;-54
2020/12/07 00:21:09;;;;;;;10.23;5.10;;;6.10;94.20;;;;;;5021401;28;20038;-50
2020/12/07 00:23:54;;;;;;;9.93;5.35;;;6.10;94.20;;;;;;5002667;28;20042;-50
2020/12/07 00:26:20;;;;;;;9.43;5.50;;;6.00;94.20;;;;;;5026696;28;20049;-50
2020/12/07 00:28:45;;;;;;;9.93;5.53;;;6.00;94.20;;;;;;5031835;28;20112;-52
2020/12/07 00:31:11;;;;;;;13.90;5.07;;;6.00;94.30;;;;;;5033758;28;20191;-50
2020/12/07 00:33:37;;;;;;;8.57;4.95;;;6.00;94.30;;;;;;5026210;28;20046;-51
2020/12/07 00:36:04;;;;;;;9.30;5.00;;;6.00;94.30;;;;;;5032724;28;20045;-51
2020/12/07 00:38:30;;;;;;;9.02;5.55;;;6.00;94.30;;;;;;5034081;28;20046;-52
2020/12/07 00:40:55;;;;;;;8.93;5.00;;;6.00;94.30;;;;;;5015934;28;20487;-49
2020/12/07 00:43:21;;;;;;;11.23;5.07;;;6.00;94.20;;;;;;5019158;28;20050;-51
2020/12/07 00:46:07;;;;;;;8.73;4.97;;;6.10;94.20;;;;;;5008031;28;20045;-50
2020/12/07 00:48:32;;;;;;;9.55;4.90;;;6.10;94.20;;;;;;5022603;28;20045;-50
2020/12/07 00:51:19;;;;;;;11.05;5.20;;;6.10;94.40;;;;;;5004165;28;20116;-51
2020/12/07 00:53:44;;;;;;;10.13;5.30;;;6.00;94.20;;;;;;5021403;28;20046;-50
2020/12/07 00:56:32;;;;;;;10.48;4.82;;;6.10;94.20;;;;;;5005364;28;20061;-49
2020/12/07 00:58:57;;;;;;;11.50;5.13;;;6.10;94.20;;;;;;5014326;28;20048;-51
2020/12/07 01:01:23;;;;;;;9.82;4.85;;;6.10;94.20;;;;;;5027350;28;20041;-51
2020/12/07 01:03:49;;;;;;;10.20;5.00;;;6.10;94.20;;;;;;5024289;28;20048;-53
2020/12/07 01:06:15;;;;;;;10.27;5.43;;;6.10;94.10;;;;;;5022929;28;20041;-52
2020/12/07 01:08:40;;;;;;;9.40;5.43;;;6.00;94.10;;;;;;5016339;28;20053;-52
2020/12/07 01:11:06;;;;;;;8.60;4.88;;;6.10;94.20;;;;;;5022025;28;20045;-50
2020/12/07 01:13:32;;;;;;;9.45;5.20;;;6.10;94.20;;;;;;5014868;28;20070;-50
2020/12/07 01:15:57;;;;;;;10.07;5.35;;;6.10;94.20;;;;;;5014482;28;20050;-49
2020/12/07 01:18:23;;;;;;;11.05;5.30;;;6.10;94.20;;;;;;5024439;28;20041;-51
2020/12/07 01:21:09;;;;;;;8.32;4.68;;;6.10;94.10;;;;;;5011126;28;20038;-53
2020/12/07 01:23:54;;;;;;;11.27;5.40;;;6.10;94.20;;;;;;5014382;28;20052;-52
2020/12/07 01:26:20;;;;;;;10.73;5.15;;;6.10;94.20;;;;;;5029295;28;20038;-53
2020/12/07 01:28:47;;;;;;;11.23;5.60;;;6.10;94.20;;;;;;5026177;28;20490;-50
2020/12/07 01:31:13;;;;;;;9.45;4.85;;;6.10;94.20;;;;;;5015198;28;20045;-51
2020/12/07 01:33:39;;;;;;;9.73;5.20;;;6.10;94.20;;;;;;5013539;28;20054;-50
2020/12/07 01:36:04;;;;;;;9.77;5.53;;;6.10;94.10;;;;;;5025453;28;20045;-50
2020/12/07 01:38:30;;;;;;;10.02;5.50;;;6.10;94.10;;;;;;5026565;28;20040;-51
2020/12/07 01:41:15;;;;;;;11.50;4.90;;;6.10;94.20;;;;;;5003273;28;20053;-50
2020/12/07 01:43:42;;;;;;;10.40;5.78;;;6.10;94.20;;;;;;5009170;28;20049;-50
2020/12/07 01:46:08;;;;;;;11.65;5.18;;;6.10;94.20;;;;;;5019011;28;20034;-52
2020/12/07 01:48:36;;;;;;;12.32;5.80;;;6.10;94.20;;;;;;5012571;28;20033;-53
2020/12/07 01:51:02;;;;;;;9.20;5.57;;;6.10;94.20;;;;;;5013787;28;20065;-53
2020/12/07 01:53:29;;;;;;;8.75;5.18;;;6.10;94.20;;;;;;5023595;28;20049;-55
2020/12/07 01:55:57;;;;;;;7.50;4.70;;;6.10;94.30;;;;;;5009432;28;20061;-54
2020/12/07 01:58:23;;;;;;;10.63;5.65;;;6.10;94.20;;;;;;5000857;28;20038;-55
2020/12/07 02:01:09;;;;;;;11.60;5.22;;;6.20;94.20;;;;;;5013199;28;20076;-49
2020/12/07 02:03:35;;;;;;;9.32;5.30;;;6.10;94.20;;;;;;4995136;28;20486;-52
2020/12/07 02:06:02;;;;;;;9.20;5.05;;;6.10;94.20;;;;;;5006537;28;20060;-49
2020/12/07 02:08:27;;;;;;;12.98;5.50;;;6.10;94.20;;;;;;5012341;28;20033;-50
2020/12/07 02:10:53;;;;;;;10.73;5.30;;;6.10;94.20;;;;;;5017134;28;20087;-54
2020/12/07 02:13:19;;;;;;;9.05;4.90;;;6.10;94.20;;;;;;5007597;28;20068;-52
2020/12/07 02:15:45;;;;;;;8.50;5.07;;;6.20;94.30;;;;;;5018874;28;20076;-57
2020/12/07 02:18:11;;;;;;;8.77;5.32;;;6.10;94.30;;;;;;5012195;28;20041;-53
2020/12/07 02:20:37;;;;;;;8.98;5.38;;;6.10;94.30;;;;;;5022744;28;20543;-54
2020/12/07 02:23:22;;;;;;;9.93;5.00;;;6.10;94.30;;;;;;5003828;28;20045;-51
2020/12/07 02:25:48;;;;;;;12.68;5.55;;;6.10;94.30;;;;;;5001177;28;20045;-54
2020/12/07 02:28:14;;;;;;;9.20;5.20;;;6.10;94.20;;;;;;5027856;28;20037;-53
2020/12/07 02:30:40;;;;;;;9.85;6.00;;;6.10;94.20;;;;;;5020651;28;20045;-54
2020/12/07 02:33:06;;;;;;;9.95;5.47;;;6.10;94.20;;;;;;5015371;28;20041;-53
2020/12/07 02:35:31;;;;;;;10.93;5.35;;;6.10;94.30;;;;;;4991920;28;20502;-53
2020/12/07 02:37:57;;;;;;;10.63;5.90;;;6.10;94.30;;;;;;5015609;28;20482;-54
2020/12/07 02:40:43;;;;;;;10.02;5.57;;;6.10;94.30;;;;;;5001053;28;20044;-54
2020/12/07 02:43:09;;;;;;;8.80;5.18;;;6.10;94.30;;;;;;5017366;28;20045;-53
2020/12/07 02:45:39;;;;;;;11.85;5.40;;;6.10;94.30;;;;;;5009591;28;20046;-54
2020/12/07 02:48:06;;;;;;;8.65;5.35;;;6.10;94.30;;;;;;5016784;28;20049;-53
2020/12/07 02:50:32;;;;;;;8.70;4.97;;;6.10;94.30;;;;;;5002845;28;20049;-51
2020/12/07 02:52:58;;;;;;;10.68;5.32;;;6.10;94.30;;;;;;5029197;28;20094;-54
2020/12/07 02:55:24;;;;;;;12.07;5.55;;;6.10;94.40;;;;;;5007573;28;20050;-54
2020/12/07 02:57:49;;;;;;;10.68;5.90;;;6.10;94.30;;;;;;5027220;28;20490;-54
2020/12/07 03:00:15;;;;;;;8.98;5.57;;;6.10;94.30;;;;;;5027601;28;20164;-53
2020/12/07 03:02:40;;;;;;;11.45;5.63;;;6.10;94.30;;;;;;5025124;28;20037;-54
2020/12/07 03:05:06;;;;;;;10.98;5.45;;;6.10;94.40;;;;;;5031215;28;20045;-51
2020/12/07 03:07:32;;;;;;;9.40;4.80;;;6.10;94.30;;;;;;5025695;28;20049;-50
2020/12/07 03:09:58;;;;;;;11.25;5.28;;;6.10;94.30;;;;;;5016883;28;20144;-54
2020/12/07 03:12:43;;;;;;;8.15;5.07;;;6.10;94.30;;;;;;5001600;28;20049;-53
2020/12/07 03:15:29;;;;;;;8.10;5.13;;;6.10;94.30;;;;;;5007108;28;20521;-51
2020/12/07 03:17:54;;;;;;;8.80;4.82;;;6.20;94.30;;;;;;5022512;28;20038;-52
2020/12/07 03:20:20;;;;;;;9.23;4.70;;;6.10;94.30;;;;;;5011367;28;20042;-53
2020/12/07 03:22:46;;;;;;;10.15;5.20;;;6.10;94.40;;;;;;5010761;28;20095;-52
2020/12/07 03:25:11;;;;;;;8.60;4.50;;;6.20;94.40;;;;;;5011300;28;20529;-50
2020/12/07 03:27:37;;;;;;;6.63;4.63;;;6.10;94.30;;;;;;5011142;28;20104;-50
2020/12/07 03:30:03;;;;;;;9.38;5.07;;;6.20;94.30;;;;;;5011687;28;20046;-50
2020/12/07 03:32:29;;;;;;;9.50;4.40;;;6.10;94.40;;;;;;5023969;28;20037;-52
2020/12/07 03:35:14;;;;;;;7.45;4.50;;;6.20;94.30;;;;;;5006316;28;20041;-51
2020/12/07 03:37:40;;;;;;;7.25;4.68;;;6.20;94.30;;;;;;5012613;28;20053;-52
2020/12/07 03:40:05;;;;;;;9.35;4.57;;;6.20;94.30;;;;;;5022745;28;20045;-50
2020/12/07 03:42:31;;;;;;;7.80;4.13;;;6.20;94.30;;;;;;5018429;28;20049;-50
2020/12/07 03:45:17;;;;;;;7.72;4.25;;;6.20;94.40;;;;;;4996323;28;20052;-50
2020/12/07 03:48:03;;;;;;;8.23;4.05;;;6.20;94.40;;;;;;5013448;28;20093;-53
2020/12/07 03:50:48;;;;;;;6.18;3.95;;;6.20;94.40;;;;;;4994887;28;20399;-53
2020/12/07 03:53:36;;;;;;;7.85;4.15;;;6.20;94.40;;;;;;5003608;28;20042;-52
2020/12/07 03:56:03;;;;;;;6.85;3.63;;;6.20;94.40;;;;;;5014652;28;20046;-53
2020/12/07 03:58:29;;;;;;;6.88;4.00;;;6.20;94.40;;;;;;5021523;28;20397;-50
2020/12/07 04:01:15;;;;;;;11.00;4.38;;;6.20;94.60;;;;;;4996052;28;20104;-51
2020/12/07 04:04:04;;;;;;;6.32;4.00;;;6.20;94.40;;;;;;5007389;28;20080;-54
2020/12/07 04:06:36;;;;;;;7.85;4.05;;;6.20;94.40;;;;;;5014362;28;20053;-51
2020/12/07 04:09:03;;;;;;;;;;;6.20;94.40;;;;;;5027703;28;20045;-50
2020/12/07 04:11:28;;;;;;;7.50;4.30;;;6.20;94.50;;;;;;5026021;28;19917;-50
2020/12/07 04:14:14;;;;;;;9.02;4.25;;;6.30;94.50;;;;;;5007702;28;20049;-51
2020/12/07 04:16:59;;;;;;;9.38;4.68;;;6.20;94.40;;;;;;5005455;28;20045;-50
2020/12/07 04:19:25;;;;;;;8.15;4.20;;;6.20;94.40;;;;;;5029182;28;20115;-53
2020/12/07 04:22:11;;;;;;;9.32;4.40;;;6.30;94.40;;;;;;5009234;28;20042;-52
2020/12/07 04:24:56;;;;;;;7.10;4.13;;;6.30;94.40;;;;;;4992795;28;20140;-50
2020/12/07 04:27:22;;;;;;;5.72;3.70;;;6.30;94.40;;;;;;5015590;28;20582;-53
2020/12/07 04:29:48;;;;;;;5.20;3.50;;;6.30;94.50;;;;;;5026256;28;20080;-52
2020/12/07 04:32:14;;;;;;;5.97;3.70;;;6.20;94.50;;;;;;5024144;28;20046;-51
2020/12/07 04:34:40;;;;;;;5.65;3.70;;;6.30;94.50;;;;;;5021820;28;20164;-51
2020/12/07 04:37:05;;;;;;;6.80;4.00;;;6.30;94.50;;;;;;5026014;28;20127;-51
2020/12/07 04:39:31;;;;;;;8.73;4.40;;;6.30;94.50;;;;;;5031006;28;20045;-49
2020/12/07 04:41:57;;;;;;;7.40;4.10;;;6.30;94.40;;;;;;5022220;28;20046;-50
2020/12/07 04:44:24;;;;;;;6.40;3.58;;;6.30;94.40;;;;;;5029145;28;20091;-52
2020/12/07 04:46:50;;;;;;;7.07;3.67;;;6.30;94.60;;;;;;5023624;28;20473;-51
2020/12/07 04:49:16;;;;;;;7.07;3.80;;;6.30;94.40;;;;;;5007798;28;20576;-50
2020/12/07 04:51:42;;;;;;;5.80;3.42;;;6.30;94.40;;;;;;5007631;28;20049;-53
2020/12/07 04:54:28;;;;;;;7.65;4.00;;;6.30;94.40;;;;;;5004026;28;20084;-50
2020/12/07 04:56:57;;;;;;;6.72;3.63;;;6.30;94.40;;;;;;5028876;28;20092;-50
2020/12/07 04:59:23;;;;;;;8.35;4.70;;;6.30;94.40;;;;;;5020683;28;20132;-52
2020/12/07 05:01:52;;;;;;;7.70;4.53;;;6.30;94.40;;;;;;5016316;28;20046;-49
2020/12/07 05:04:18;;;;;;;7.15;4.53;;;6.30;94.40;;;;;;4991295;28;20148;-49
2020/12/07 05:06:55;;;;;;;8.38;5.00;;;6.30;94.40;;;;;;5025795;28;20121;-50
2020/12/07 05:09:22;;;;;;;6.88;4.97;;;6.30;94.50;;;;;;5021258;28;20160;-49
2020/12/07 05:12:16;;;;;;;9.05;4.90;;;6.30;94.40;;;;;;5011129;28;20049;-50
2020/12/07 05:14:43;;;;;;;9.98;5.38;;;6.30;94.40;;;;;;5015308;28;20037;-50
2020/12/07 05:17:09;;;;;;;9.68;5.47;;;6.30;94.40;;;;;;5020651;28;20457;-52
2020/12/07 05:19:34;;;;;;;10.07;5.35;;;6.20;94.40;;;;;;5018887;28;20125;-54
2020/12/07 05:22:00;;;;;;;10.57;6.25;;;6.30;94.40;;;;;;5028013;28;20137;-54
2020/12/07 05:24:50;;;;;;;10.65;5.43;;;6.20;94.50;;;;;;5017148;28;20038;-52
2020/12/07 05:27:17;;;;;;;10.75;5.55;;;6.20;94.50;;;;;;5011400;28;20042;-52
2020/12/07 05:32:50;;;;;;;10.27;6.38;;;6.30;94.50;;;;;;5004672;28;20127;-53
2020/12/07 05:35:16;;;;;;;10.85;6.07;;;6.30;94.50;;;;;;5023431;28;20042;-53
2020/12/07 05:37:42;;;;;;;12.43;6.65;;;6.30;94.40;;;;;;5013081;28;20470;-53
2020/12/07 05:40:10;;;;;;;11.35;6.38;;;6.30;94.50;;;;;;5021359;28;20501;-53
2020/12/07 05:42:36;;;;;;;14.57;6.00;;;6.30;94.50;;;;;;5024840;28;20116;-51
2020/12/07 05:45:04;;;;;;;17.40;7.82;;;6.30;94.50;;;;;;5016457;28;20037;-53
2020/12/07 05:47:37;;;;;;;11.32;6.25;;;6.30;94.50;;;;;;5021781;28;20038;-52
2020/12/07 05:50:05;;;;;;;10.85;6.50;;;6.30;94.50;;;;;;5023652;28;20049;-52
2020/12/07 05:52:59;;;;;;;13.20;6.32;;;6.30;94.60;;;;;;5003466;28;20417;-53
2020/12/07 05:55:25;;;;;;;12.85;6.38;;;6.30;94.50;;;;;;5017520;28;20042;-53
2020/12/07 05:57:57;;;;;;;11.23;5.90;;;6.30;94.50;;;;;;5020219;28;20537;-53
2020/12/07 06:00:43;;;;;;;10.38;5.97;;;6.30;94.50;;;;;;5018195;28;20042;-54
2020/12/07 06:03:09;;;;;;;12.13;6.90;;;6.30;94.50;;;;;;5008616;28;20575;-49
2020/12/07 06:05:54;;;;;;;10.48;6.10;;;6.30;94.50;;;;;;5003919;28;20045;-51
2020/12/07 06:08:41;;;;;;;12.15;7.05;;;6.30;94.50;;;;;;5019997;28;20081;-51
2020/12/07 06:11:29;;;;;;;14.30;6.68;;;6.30;94.60;;;;;;5003920;28;20045;-50
2020/12/07 06:13:56;;;;;;;11.13;5.90;;;6.30;94.60;;;;;;5025983;28;20097;-50
2020/12/07 06:16:26;;;;;;;10.52;6.47;;;6.30;94.60;;;;;;5026469;28;20191;-49
2020/12/07 06:18:55;;;;;;;10.23;6.20;;;6.30;94.60;;;;;;5022135;28;20038;-51
2020/12/07 06:21:22;;;;;;;11.25;6.63;;;6.30;94.60;;;;;;5008282;28;20136;-48
2020/12/07 06:23:48;;;;;;;9.95;6.40;;;6.40;94.60;;;;;;5008650;28;20045;-48
2020/12/07 06:26:17;;;;;;;12.27;6.30;;;6.30;94.60;;;;;;5025786;28;20047;-52
2020/12/07 06:28:44;;;;;;;9.50;5.85;;;6.40;94.60;;;;;;5014938;28;20501;-51
2020/12/07 06:31:15;;;;;;;10.02;5.32;;;6.40;94.60;;;;;;5003782;28;20033;-50
2020/12/07 06:34:09;;;;;;;10.02;5.60;;;6.40;94.60;;;;;;5005638;28;20045;-50
2020/12/07 06:36:56;;;;;;;7.75;4.32;;;6.40;94.60;;;;;;5005729;28;20042;-53
2020/12/07 06:39:22;;;;;;;7.07;3.35;;;6.40;94.60;;;;;;5014745;28;20281;-49
2020/12/07 06:41:47;;;;;;;8.00;3.35;;;6.50;94.50;;;;;;5015997;28;20038;-49
2020/12/07 06:44:33;;;;;;;6.28;3.80;;;6.50;94.40;;;;;;5005205;28;20509;-51
2020/12/07 06:47:07;;;;;;;7.43;3.35;;;6.50;94.40;;;;;;5013866;28;20038;-50
2020/12/07 06:49:53;;;;;;;6.35;3.50;;;6.50;94.40;;;;;;5016332;28;20042;-52
2020/12/07 06:52:22;;;;;;;8.90;3.30;;;6.50;94.40;;;;;;5015510;28;20048;-52
2020/12/07 06:57:44;;;;;;;6.13;3.50;;;6.60;94.40;;;;;;5016946;28;20434;-49
2020/12/07 07:00:09;;;;;;;8.82;3.67;;;6.50;94.40;;;;;;5020319;28;20041;-51
2020/12/07 07:02:40;;;;;;;7.97;4.28;;;6.50;94.40;;;;;;5024264;28;20111;-53
2020/12/07 07:05:07;;;;;;;10.95;4.63;;;6.50;94.40;;;;;;5021259;28;20053;-49
2020/12/07 07:07:34;;;;;;;8.38;4.30;;;6.50;94.40;;;;;;4992091;28;20029;-51
2020/12/07 07:10:00;;;;;;;9.75;4.85;;;6.50;94.40;;;;;;5020039;28;20046;-52
2020/12/07 07:12:27;;;;;;;11.68;5.20;;;6.60;94.30;;;;;;5015809;28;20045;-50
2020/12/07 07:14:53;;;;;;;10.60;4.90;;;6.60;94.30;;;;;;5012456;28;20038;-49
2020/12/07 07:17:20;;;;;;;10.13;4.80;;;6.60;94.30;;;;;;5018890;28;20128;-52
2020/12/07 07:19:46;;;;;;;12.57;4.63;;;6.50;94.30;;;;;;5014515;28;20588;-50
2020/12/07 07:22:32;;;;;;;10.98;5.30;;;6.50;94.40;;;;;;5005541;28;20128;-52
2020/12/07 07:28:07;;;;;;;10.02;4.60;;;6.60;94.50;;;;;;5013933;28;20165;-50
2020/12/07 07:30:33;;;;;;;9.75;5.90;;;6.60;94.40;;;;;;5025231;28;20124;-53
2020/12/07 07:32:59;;;;;;;10.60;5.03;;;6.50;94.60;;;;;;5025938;28;20049;-50
2020/12/07 07:35:27;;;;;;;10.13;4.35;;;6.50;94.50;;;;;;5021723;28;20117;-53
2020/12/07 07:37:53;;;;;;;11.00;5.07;;;6.50;94.60;;;;;;4996532;28;20116;-51
2020/12/07 07:40:24;;;;;;;9.40;4.65;;;6.50;94.50;;;;;;5015054;28;20096;-52
2020/12/07 07:43:02;;;;;;;10.30;4.82;;;6.50;94.60;;;;;;5015999;28;20044;-52
2020/12/07 07:45:37;;;;;;;10.95;5.00;;;6.50;94.50;;;;;;5017352;28;20405;-51
2020/12/07 08:16:23;;;;;;;9.43;5.30;;;6.50;94.70;;;;;;5004308;28;20077;-53
2020/12/07 08:19:22;;;;;;;13.95;5.40;;;6.50;94.60;;;;;;5007409;28;20068;-52
2020/12/07 08:21:48;;;;;;;8.40;4.80;;;6.60;94.60;;;;;;5016576;28;20080;-52
2020/12/07 08:24:14;;;;;;;8.38;4.72;;;6.60;94.70;;;;;;5013712;28;20074;-52
2020/12/07 08:26:43;;;;;;;11.93;4.50;;;6.60;94.60;;;;;;5017735;28;20029;-52
2020/12/07 08:29:09;;;;;;;10.05;4.38;;;6.60;94.60;;;;;;5020601;28;20160;-50
2020/12/07 08:31:55;;;;;;;9.77;4.28;;;6.70;94.60;;;;;;5001204;28;20050;-52
2020/12/07 08:34:29;;;;;;;8.25;4.18;;;6.70;94.60;;;;;;5021056;28;20095;-50
2020/12/07 08:37:15;;;;;;;10.60;4.28;;;6.70;94.50;;;;;;5000193;28;20092;-51
2020/12/07 08:39:40;;;;;;;11.00;4.10;;;6.80;94.50;;;;;;5020674;28;20493;-51
2020/12/07 08:42:06;;;;;;;8.38;3.78;;;6.80;94.50;;;;;;5016813;28;20052;-53
2020/12/07 08:44:51;;;;;;;8.90;4.03;;;6.80;94.40;;;;;;5002331;28;20037;-53
2020/12/07 08:47:17;;;;;;;9.45;3.70;;;6.80;94.70;;;;;;5015646;28;20037;-51
2020/12/07 08:50:03;;;;;;;13.50;4.10;;;6.80;94.50;;;;;;5008235;28;20059;-53
2020/12/07 08:52:30;;;;;;;9.02;3.90;;;6.80;94.50;;;;;;5023888;28;20049;-50
2020/12/07 08:54:56;;;;;;;9.05;4.28;;;6.80;94.60;;;;;;5025615;28;20042;-53
2020/12/07 08:57:21;;;;;;;12.23;5.00;;;6.80;94.50;;;;;;5025289;28;20140;-53
2020/12/07 08:59:47;;;;;;;7.65;4.35;;;6.80;94.50;;;;;;5017877;28;20483;-53
2020/12/07 09:02:32;;;;;;;13.82;5.07;;;6.80;94.50;;;;;;5003704;28;20044;-52
2020/12/07 09:05:18;;;;;;;12.27;4.70;;;6.80;94.60;;;;;;5001210;28;20049;-53
2020/12/07 09:07:43;;;;;;;10.60;4.72;;;6.70;94.60;;;;;;5014877;28;20042;-53
2020/12/07 09:10:09;;;;;;;11.68;4.55;;;6.70;94.60;;;;;;5025215;28;20042;-52
2020/12/07 09:12:55;;;;;;;11.88;4.00;;;6.70;94.70;;;;;;4998920;28;20046;-57
2020/12/07 09:15:20;;;;;;;9.27;4.47;;;6.80;94.60;;;;;;5014559;28;20034;-57
2020/12/07 09:17:46;;;;;;;10.43;4.70;;;6.80;94.50;;;;;;5015390;28;20052;-57
2020/12/07 09:20:32;;;;;;;8.88;4.20;;;6.70;94.50;;;;;;4984604;28;20057;-56
2020/12/07 09:23:17;;;;;;;12.13;4.05;;;6.80;94.60;;;;;;4995834;28;20471;-56
2020/12/07 09:25:43;;;;;;;11.98;4.03;;;6.80;94.50;;;;;;5021562;28;20150;-56
2020/12/07 09:28:29;;;;;;;7.50;3.85;;;6.80;94.50;;;;;;5010403;28;20524;-56
2020/12/07 09:30:55;;;;;;;11.88;2.72;;;6.70;94.50;;;;;;5020823;28;20041;-57
2020/12/07 09:33:21;;;;;;;7.80;2.53;;;6.70;94.60;;;;;;5023560;28;20397;-57
2020/12/07 09:35:46;;;;;;;9.10;2.35;;;6.70;94.50;;;;;;5021365;28;20042;-57
2020/12/07 09:38:12;;;;;;;7.97;2.85;;;6.70;94.50;;;;;;5021298;28;20735;-53
2020/12/07 09:40:58;;;;;;;8.70;2.67;;;6.70;94.50;;;;;;5003775;28;20049;-52
2020/12/07 09:43:24;;;;;;;8.65;2.47;;;6.60;94.60;;;;;;5017746;28;20025;-51
2020/12/07 09:45:50;;;;;;;6.03;2.15;;;6.60;94.70;;;;;;5020193;28;20044;-53
2020/12/07 09:48:15;;;;;;;7.05;2.47;;;6.70;94.60;;;;;;5014636;28;20380;-54
2020/12/07 09:50:41;;;;;;;5.22;2.67;;;6.60;94.60;;;;;;5021592;28;20069;-55
2020/12/07 09:53:10;;;;;;;8.57;2.75;;;6.60;94.60;;;;;;5018385;28;20031;-54
2020/12/07 09:55:36;;;;;;;8.70;2.70;;;6.70;94.60;;;;;;5014596;28;20411;-52
2020/12/07 09:58:02;;;;;;;5.63;2.30;;;6.60;94.40;;;;;;5015077;28;20088;-50
2020/12/07 10:00:48;;;;;;;8.48;2.17;;;6.60;94.40;;;;;;5004464;28;20568;-49
2020/12/07 10:03:13;;;;;;;7.63;2.33;;;6.60;94.30;;;;;;5008141;28;20042;-50
2020/12/07 10:05:39;;;;;;;7.00;3.13;;;6.60;94.40;;;;;;5010571;28;20772;-53
2020/12/07 10:08:25;;;;;;;6.68;2.65;;;6.60;94.40;;;;;;4994541;28;20575;-51
2020/12/07 10:10:51;;;;;;;7.03;2.50;;;6.60;94.40;;;;;;5008306;28;20042;-52
2020/12/07 10:13:17;;;;;;;12.02;2.58;;;6.60;94.40;;;;;;5006650;28;20136;-52
2020/12/07 10:16:03;;;;;;;11.48;2.72;;;6.60;94.30;;;;;;5000505;28;20143;-51
2020/12/07 10:18:48;;;;;;;7.43;2.78;;;6.60;94.40;;;;;;5012028;28;20542;-56
2020/12/07 10:21:15;;;;;;;7.53;3.30;;;6.70;94.40;;;;;;5012955;28;20057;-51
2020/12/07 10:23:40;;;;;;;8.40;3.28;;;6.70;94.40;;;;;;5012774;28;20038;-49
2020/12/07 10:26:06;;;;;;;8.50;3.50;;;6.70;94.40;;;;;;5018386;28;20037;-52
2020/12/07 10:28:31;;;;;;;11.88;3.40;;;6.70;94.40;;;;;;5013894;28;20100;-55
2020/12/07 10:31:21;;;;;;;13.88;4.53;;;6.60;94.40;;;;;;5002377;28;20132;-50
2020/12/07 10:33:48;;;;;;;11.70;4.43;;;6.60;94.50;;;;;;5009067;28;20042;-50
2020/12/07 10:36:16;;;;;;;9.82;3.90;;;6.70;94.50;;;;;;5018385;28;20124;-52
2020/12/07 10:39:04;;;;;;;10.43;4.32;;;6.80;94.30;;;;;;4999284;28;20053;-50
2020/12/07 10:41:30;;;;;;;11.65;3.75;;;6.70;94.40;;;;;;5016947;28;20128;-52
2020/12/07 10:44:15;;;;;;;11.18;3.63;;;6.70;94.40;;;;;;4997419;28;20038;-51
2020/12/07 10:46:41;;;;;;;9.88;3.55;;;6.60;94.40;;;;;;5014928;28;20049;-54
2020/12/07 10:49:26;;;;;;;8.13;3.85;;;6.60;94.40;;;;;;5006084;28;20072;-53
2020/12/07 10:51:52;;;;;;;9.95;3.67;;;6.60;94.50;;;;;;5010079;28;20722;-53
2020/12/07 10:54:37;;;;;;;7.40;3.30;;;6.70;94.80;;;;;;5002563;28;20042;-53
2020/12/07 10:57:03;;;;;;;10.38;3.67;;;6.70;94.40;;;;;;5019017;28;20472;-50
2020/12/07 10:59:49;;;;;;;11.88;4.32;;;6.70;94.40;;;;;;4998066;28;20037;-54
2020/12/07 11:02:15;;;;;;;9.93;3.80;;;6.70;94.40;;;;;;5013620;28;20044;-51
2020/12/07 11:04:40;;;;;;;10.85;4.00;;;6.70;94.30;;;;;;5006780;28;20049;-54
2020/12/07 11:07:13;;;;;;;14.13;4.43;;;6.70;94.40;;;;;;5016860;28;20512;-54
2020/12/07 11:09:58;;;;;;;8.85;3.50;;;6.70;94.50;;;;;;4996154;28;20061;-54
2020/12/07 11:12:25;;;;;;;11.20;3.92;;;6.70;94.50;;;;;;5010389;28;20044;-52
2020/12/07 11:14:50;;;;;;;8.00;3.47;;;6.70;94.50;;;;;;5007700;28;20034;-53
2020/12/07 11:17:36;;;;;;;7.47;3.60;;;6.80;94.40;;;;;;4997203;28;20049;-54
2020/12/07 11:20:02;;;;;;;10.10;4.22;;;6.70;94.30;;;;;;5008587;28;20497;-54
2020/12/07 11:22:48;;;;;;;6.55;3.75;;;6.80;94.10;;;;;;4997419;28;20426;-54
2020/12/07 11:25:13;;;;;;;11.18;4.15;;;6.70;94.20;;;;;;5012011;28;20046;-50
2020/12/07 11:27:41;;;;;;;9.73;4.22;;;6.80;94.30;;;;;;5013312;28;20037;-54
2020/12/07 11:30:26;;;;;;;11.65;3.80;;;6.80;94.20;;;;;;5005293;28;20042;-50
2020/12/07 11:33:12;;;;;;;7.72;3.47;;;6.70;94.30;;;;;;4994319;28;20128;-53
2020/12/07 11:35:58;;;;;;;9.05;4.00;;;6.70;94.30;;;;;;4999468;28;20053;-52
2020/12/07 11:38:26;;;;;;;10.63;3.97;;;6.80;94.50;;;;;;5013264;28;20050;-53
2020/12/07 11:44:13;;;;;;;6.70;3.72;;;6.80;94.20;;;;;;4995876;28;20141;-52
2020/12/07 11:49:10;;;;;;;9.23;4.80;;;6.70;94.00;;;;;;5016820;28;20053;-53
2020/12/07 11:51:38;;;;;;;10.35;5.85;;;6.70;94.20;;;;;;5014313;28;20586;-53
2020/12/07 11:54:03;;;;;;;11.52;6.05;;;6.80;94.20;;;;;;5015000;28;20065;-53
2020/12/07 11:56:37;;;;;;;12.25;6.30;;;6.80;94.10;;;;;;5014258;28;21033;-54
2020/12/07 11:59:04;;;;;;;13.02;6.25;;;6.80;94.20;;;;;;5020423;28;20045;-53
2020/12/07 12:01:50;;;;;;;9.88;5.70;;;6.80;94.20;;;;;;5000135;28;20049;-53
2020/12/07 12:04:35;;;;;;;9.57;5.55;;;6.80;94.30;;;;;;5002054;28;20503;-52
2020/12/07 12:07:01;;;;;;;11.35;6.82;;;6.80;94.20;;;;;;5020028;28;20041;-53
2020/12/07 12:09:26;;;;;;;10.02;6.20;;;6.70;94.20;;;;;;5024612;28;20045;-54
2020/12/07 12:12:12;;;;;;;11.60;6.88;;;6.70;94.30;;;;;;5007125;28;20111;-53
2020/12/07 12:14:38;;;;;;;12.80;6.95;;;6.70;94.30;;;;;;5020654;28;20042;-51
2020/12/07 12:17:03;;;;;;;13.45;7.22;;;6.70;94.20;;;;;;5022483;28;20036;-54
2020/12/07 12:19:29;;;;;;;11.43;7.20;;;6.70;94.30;;;;;;5016538;28;20060;-54
2020/12/07 12:22:14;;;;;;;9.75;6.18;;;6.70;94.30;;;;;;4999588;28;20045;-54
2020/12/07 12:24:40;;;;;;;10.95;6.65;;;6.70;94.40;;;;;;5017339;28;20045;-49
2020/12/07 12:27:05;;;;;;;10.05;6.75;;;6.70;94.40;;;;;;5019865;28;20104;-54
2020/12/07 12:29:31;;;;;;;11.07;6.60;;;6.70;94.20;;;;;;5017001;28;20041;-50
2020/12/07 12:31:57;;;;;;;12.38;6.30;;;6.90;94.00;;;;;;5017463;28;20037;-54
2020/12/07 12:34:22;;;;;;;11.45;5.20;;;6.90;93.80;;;;;;5013487;28;20037;-54
2020/12/07 12:37:08;;;;;;;10.02;5.68;;;6.70;94.00;;;;;;5005351;28;20130;-53
2020/12/07 12:39:34;;;;;;;8.90;4.95;;;6.80;94.00;;;;;;5018642;28;20157;-54
2020/12/07 12:42:00;;;;;;;8.95;4.50;;;6.70;93.90;;;;;;5013352;28;20037;-54
2020/12/07 12:44:46;;;;;;;7.20;3.60;;;6.70;93.90;;;;;;5004138;28;20033;-52
2020/12/07 12:47:31;;;;;;;8.32;4.35;;;6.70;93.80;;;;;;5000215;28;20133;-53
2020/12/07 12:49:57;;;;;;;9.00;3.65;;;6.70;93.90;;;;;;5017263;28;20507;-53
2020/12/07 12:52:22;;;;;;;4.53;2.85;;;6.60;93.80;;;;;;5017807;28;20049;-53
2020/12/07 12:54:48;;;;;;;5.18;2.47;;;6.60;93.60;;;;;;5015791;28;20049;-53
2020/12/07 12:57:13;;;;;;;6.13;2.60;;;6.50;93.20;;;;;;5013599;28;20033;-54
2020/12/07 12:59:40;;;;;;;4.00;2.30;;;6.50;93.40;;;;;;5008609;28;20529;-54
2020/12/07 13:02:25;;;;;;;4.60;2.20;;;6.50;93.20;;;;;;4997654;28;20045;-53
2020/12/07 13:04:51;;;;;;;4.13;1.85;;;6.50;93.20;;;;;;5018961;28;20656;-53
2020/12/07 13:07:37;;;;;;;5.22;1.90;;;6.50;92.60;;;;;;5001055;28;20484;-52
2020/12/07 13:10:03;;;;;;;2.33;1.50;;;6.50;92.80;;;;;;5021660;28;20037;-53
2020/12/07 13:12:28;;;;;;;3.97;1.80;;;6.40;92.90;;;;;;5013603;28;20030;-53
2020/12/07 13:15:14;;;;;;;5.38;2.00;;;6.40;92.70;;;;;;5002324;28;20077;-53
2020/12/07 13:18:04;;;;;;;3.30;2.30;;;6.40;93.00;;;;;;5004224;28;20402;-53
2020/12/07 13:29:13;;;;;;;8.85;3.30;;;6.30;93.50;;;;;;4996727;28;20469;-53
2020/12/07 13:31:58;;;;;;;7.95;3.58;;;6.30;93.40;;;;;;4997757;28;20132;-53
2020/12/07 13:34:24;;;;;;;6.65;3.80;;;6.30;93.50;;;;;;5011800;28;20144;-50
2020/12/07 13:36:50;;;;;;;7.25;3.53;;;6.40;93.50;;;;;;5009279;28;20046;-53
2020/12/07 13:39:15;;;;;;;7.97;3.63;;;6.40;93.60;;;;;;5011579;28;20046;-53
2020/12/07 13:41:45;;;;;;;5.35;3.38;;;6.30;93.60;;;;;;5006615;28;20056;-53
2020/12/07 13:44:11;;;;;;;9.10;4.10;;;6.40;93.70;;;;;;5007198;28;20068;-54
2020/12/07 13:46:57;;;;;;;9.77;4.53;;;6.50;93.50;;;;;;5000062;28;20083;-53
2020/12/07 13:49:42;;;;;;;8.85;5.20;;;6.50;93.60;;;;;;4998500;28;20052;-53
2020/12/07 13:52:09;;;;;;;10.23;5.15;;;6.50;93.60;;;;;;5010923;28;20038;-54
2020/12/07 13:54:35;;;;;;;11.23;5.55;;;6.50;93.60;;;;;;5021524;28;20116;-53
2020/12/07 13:57:02;;;;;;;6.80;5.00;;;6.50;93.80;;;;;;5015749;28;20095;-53
2020/12/07 13:59:28;;;;;;;9.85;5.93;;;6.50;93.60;;;;;;5014831;28;20037;-51
2020/12/07 14:01:54;;;;;;;9.85;6.45;;;6.50;93.60;;;;;;5019132;28;20045;-53
2020/12/07 14:06:49;;;;;;;14.95;7.40;;;6.50;93.70;;;;;;5010343;28;20061;-52
2020/12/07 14:09:15;;;;;;;13.50;7.72;;;6.50;93.50;;;;;;5015621;28;20160;-53